Terminal Aerodrome Forecast
Issued by NWS

Home | Current Version | Previous Version | Text Only | Print | Product List | Glossary On
Versions: 1 2 3 4 5 6 7 8 9 10 11 12 13 14 15 16 17 18 19
782
FTUS43 KGRB 230704 AAA
TAFMTW
TAF AMD
KMTW 230704Z 2307/2406 30002KT P6SM SCT014 OVC060
      TEMPO 2307/2309 4SM -TSRA BR BKN014CB
     FM230900 31003KT P6SM SCT050 BKN090
     FM231000 31006KT P6SM BKN090
     FM231400 29012G20KT P6SM SCT050
     FM240100 30007KT P6SM SCT080=

USA.gov is the U.S. government's official web portal to all federal, state and local government web resources and services.